Time;durP1;ratioP1;P1;durP2;ratioP2;P2;SDS_P1;SDS_P2;PMS_P1;PMS_P2;Temp;Humidity;BMP_temperature;BMP_pressure;BME280_temperature;BME280_humidity;BME280_pressure;Samples;Min_cycle;Max_cycle;Signal;HPM_P1;HPM_P2
2021/05/01 00:01:06;;;;;;;10.90;7.03;;;11.90;99.90;;;;;;5092170;28;20218;-71
2021/05/01 00:03:33;;;;;;;10.23;6.97;;;11.90;99.90;;;;;;5092049;28;20209;-72
2021/05/01 00:06:00;;;;;;;11.20;8.37;;;11.80;99.90;;;;;;5091292;28;20271;-72
2021/05/01 00:08:28;;;;;;;8.80;7.20;;;11.80;99.90;;;;;;5091490;28;20216;-72
2021/05/01 00:10:56;;;;;;;11.13;7.13;;;11.70;99.90;;;;;;5091301;28;20208;-72
2021/05/01 00:13:23;;;;;;;10.07;8.47;;;11.70;99.90;;;;;;5091260;28;20205;-72
2021/05/01 00:15:50;;;;;;;10.03;7.37;;;11.70;99.90;;;;;;5091224;28;20259;-72
2021/05/01 00:18:17;;;;;;;11.83;8.57;;;11.70;99.90;;;;;;5091288;28;20197;-71
2021/05/01 00:20:43;;;;;;;12.00;8.50;;;11.60;99.90;;;;;;5091061;28;20201;-71
2021/05/01 00:23:10;;;;;;;11.77;8.50;;;11.60;99.90;;;;;;5091810;28;20214;-72
2021/05/01 00:25:36;;;;;;;10.57;7.53;;;11.50;99.90;;;;;;5091442;28;20692;-71
2021/05/01 00:28:03;;;;;;;11.63;8.20;;;11.50;99.90;;;;;;5091412;28;20201;-71
2021/05/01 00:30:31;;;;;;;10.43;8.27;;;11.50;99.90;;;;;;5091135;28;20681;-71
2021/05/01 00:32:58;;;;;;;14.70;8.33;;;11.40;99.90;;;;;;5090758;28;20205;-71
2021/05/01 00:35:27;;;;;;;11.70;8.80;;;11.30;99.90;;;;;;5091015;28;20221;-71
2021/05/01 00:37:53;;;;;;;12.37;9.43;;;11.30;99.90;;;;;;5091122;28;20208;-70
2021/05/01 00:40:20;;;;;;;11.87;9.93;;;11.30;99.90;;;;;;5091105;28;20669;-72
2021/05/01 00:42:46;;;;;;;12.30;9.73;;;11.30;99.90;;;;;;5090594;28;20201;-71
2021/05/01 00:45:13;;;;;;;12.40;9.07;;;11.30;99.90;;;;;;5091088;28;20201;-71
2021/05/01 00:47:40;;;;;;;10.13;8.63;;;11.20;99.90;;;;;;5090281;28;20374;-71
2021/05/01 00:50:08;;;;;;;12.40;8.57;;;11.10;99.90;;;;;;5091488;28;20205;-71
2021/05/01 00:52:35;;;;;;;12.53;9.60;;;11.20;99.90;;;;;;5091301;28;20206;-71
2021/05/01 00:55:03;;;;;;;13.70;10.23;;;11.10;99.90;;;;;;5090372;28;20210;-71
2021/05/01 00:57:30;;;;;;;13.77;9.83;;;11.20;99.90;;;;;;5091136;28;20206;-70
2021/05/01 00:59:57;;;;;;;13.80;9.13;;;11.20;99.90;;;;;;5090625;28;20198;-69
2021/05/01 01:02:27;;;;;;;10.40;9.40;;;11.10;99.90;;;;;;5090650;28;20580;-69
2021/05/01 01:04:55;;;;;;;11.93;10.10;;;11.10;99.90;;;;;;5090377;28;20201;-69
2021/05/01 01:07:22;;;;;;;11.47;10.33;;;11.10;99.90;;;;;;5090722;28;20588;-69
2021/05/01 01:09:50;;;;;;;12.17;9.57;;;11.10;99.90;;;;;;5090013;28;20198;-69
2021/05/01 01:12:17;;;;;;;11.50;10.07;;;11.00;99.90;;;;;;5090752;28;20206;-69
2021/05/01 01:14:44;;;;;;;15.50;9.60;;;11.10;99.90;;;;;;5089971;28;20206;-69
2021/05/01 01:17:11;;;;;;;12.30;10.13;;;11.10;99.90;;;;;;5090277;28;20577;-70
2021/05/01 01:19:39;;;;;;;11.27;9.63;;;11.10;99.90;;;;;;5090662;28;20224;-71
2021/05/01 01:22:14;;;;;;;11.13;9.70;;;11.20;99.90;;;;;;5083723;28;20575;-70
2021/05/01 01:24:40;;;;;;;11.93;9.07;;;11.10;99.90;;;;;;5089666;28;20201;-70
2021/05/01 01:27:08;;;;;;;14.63;9.73;;;11.00;99.90;;;;;;5086417;28;20214;-70
2021/05/01 01:29:36;;;;;;;12.20;10.97;;;11.00;99.90;;;;;;5069581;28;20263;-70
2021/05/01 01:32:02;;;;;;;14.07;10.13;;;11.00;99.90;;;;;;5069560;28;20214;-71
2021/05/01 01:34:29;;;;;;;11.90;10.77;;;11.00;99.90;;;;;;5070249;28;20586;-70
2021/05/01 01:36:55;;;;;;;14.80;10.97;;;10.90;99.90;;;;;;5069783;28;20237;-72
2021/05/01 01:39:23;;;;;;;14.87;10.77;;;10.80;99.90;;;;;;5069945;28;20590;-71
2021/05/01 01:41:49;;;;;;;11.30;10.23;;;10.80;99.90;;;;;;5069990;28;20260;-73
2021/05/01 01:44:16;;;;;;;15.23;10.27;;;10.80;99.90;;;;;;5069820;28;20586;-70
2021/05/01 01:46:42;;;;;;;12.83;10.53;;;10.90;99.90;;;;;;5069733;28;20213;-70
2021/05/01 01:49:09;;;;;;;15.80;11.90;;;10.90;99.90;;;;;;5070140;28;20218;-70
2021/05/01 01:51:35;;;;;;;13.90;11.57;;;10.90;99.90;;;;;;5070161;28;20214;-71
2021/05/01 01:54:01;;;;;;;14.37;11.73;;;10.70;99.90;;;;;;5069760;28;20289;-71
2021/05/01 01:56:29;;;;;;;13.93;11.97;;;10.80;99.90;;;;;;5069682;28;20241;-71
2021/05/01 01:58:55;;;;;;;14.03;11.83;;;10.70;99.90;;;;;;5069602;28;20548;-73
2021/05/01 02:01:22;;;;;;;15.47;11.17;;;10.70;99.90;;;;;;5069751;28;20210;-71
2021/05/01 02:03:49;;;;;;;14.87;12.60;;;10.70;99.90;;;;;;5069649;28;20213;-75
2021/05/01 02:06:16;;;;;;;15.73;11.93;;;10.60;99.90;;;;;;5069884;28;20662;-74
2021/05/01 02:08:43;;;;;;;15.50;12.77;;;10.60;99.90;;;;;;5069127;28;20213;-73
2021/05/01 02:11:10;;;;;;;15.23;13.23;;;10.60;99.90;;;;;;5070109;28;20296;-72
2021/05/01 02:13:37;;;;;;;13.57;11.73;;;10.60;99.90;;;;;;5070238;28;20210;-72
2021/05/01 02:16:04;;;;;;;16.27;12.67;;;10.60;99.90;;;;;;5070052;28;20226;-72
2021/05/01 02:18:31;;;;;;;16.70;13.80;;;10.50;99.90;;;;;;5069656;28;20210;-72
2021/05/01 02:20:57;;;;;;;15.97;13.73;;;10.40;99.90;;;;;;5069610;28;20202;-72
2021/05/01 02:23:24;;;;;;;16.10;13.67;;;10.30;99.90;;;;;;5069952;28;20206;-72
2021/05/01 02:25:50;;;;;;;14.13;12.63;;;10.20;99.90;;;;;;5069727;28;20210;-71
2021/05/01 02:28:18;;;;;;;15.53;13.93;;;10.10;99.90;;;;;;5069756;28;20202;-72
2021/05/01 02:30:46;;;;;;;17.63;14.93;;;10.10;99.90;;;;;;5069250;28;20632;-71
2021/05/01 02:33:12;;;;;;;18.97;14.93;;;10.10;99.90;;;;;;5069640;28;20289;-71
2021/05/01 02:35:40;;;;;;;19.20;14.37;;;10.00;99.90;;;;;;5070241;28;20226;-70
2021/05/01 02:38:08;;;;;;;15.20;13.70;;;9.90;99.90;;;;;;5073365;28;20690;-70
2021/05/01 02:40:35;;;;;;;16.57;14.90;;;9.80;99.90;;;;;;5073562;28;20252;-73
2021/05/01 02:43:03;;;;;;;16.10;14.37;;;9.80;99.90;;;;;;5072871;28;20213;-72
2021/05/01 02:45:29;;;;;;;15.47;13.97;;;9.70;99.90;;;;;;5073360;28;20210;-70
2021/05/01 02:47:57;;;;;;;16.80;14.57;;;9.70;99.90;;;;;;5072535;28;20305;-74
2021/05/01 02:50:23;;;;;;;17.13;14.43;;;9.60;99.90;;;;;;5073229;28;20586;-73
2021/05/01 02:52:50;;;;;;;18.23;15.73;;;9.60;99.90;;;;;;5072558;28;22118;-70
2021/05/01 02:55:17;;;;;;;18.20;14.20;;;9.50;99.90;;;;;;5073215;28;20237;-71
2021/05/01 02:57:44;;;;;;;17.10;15.27;;;9.50;99.90;;;;;;5072298;28;20202;-71
2021/05/01 03:00:13;;;;;;;17.57;15.60;;;9.50;99.90;;;;;;5073125;28;20210;-73
2021/05/01 03:02:40;;;;;;;17.40;15.47;;;9.60;99.90;;;;;;5072872;28;20255;-70
2021/05/01 03:05:09;;;;;;;21.73;16.87;;;9.70;99.90;;;;;;5072770;28;20581;-71
2021/05/01 03:07:36;;;;;;;19.77;15.30;;;9.50;99.90;;;;;;5072802;28;20218;-72
2021/05/01 03:10:03;;;;;;;20.93;16.40;;;9.50;99.90;;;;;;5072158;28;20202;-72
2021/05/01 03:12:30;;;;;;;18.70;16.57;;;9.60;99.90;;;;;;5070865;28;20206;-73
2021/05/01 03:14:57;;;;;;;19.90;15.77;;;9.60;99.90;;;;;;5071765;28;20222;-72
2021/05/01 03:17:23;;;;;;;16.57;14.87;;;9.70;99.90;;;;;;5072505;28;20244;-72
2021/05/01 03:19:50;;;;;;;20.43;16.30;;;9.70;99.90;;;;;;5071643;28;20206;-76
2021/05/01 03:22:18;;;;;;;17.90;16.07;;;9.70;99.90;;;;;;5072888;28;20214;-76
2021/05/01 03:24:44;;;;;;;19.60;16.77;;;9.70;99.90;;;;;;5072372;28;20210;-76
2021/05/01 03:27:11;;;;;;;20.40;16.77;;;9.60;99.90;;;;;;5072285;28;20210;-75
2021/05/01 03:29:38;;;;;;;18.40;16.17;;;9.70;99.90;;;;;;5072621;28;20682;-75
2021/05/01 03:32:05;;;;;;;17.70;16.00;;;9.70;99.90;;;;;;5072126;28;20555;-75
2021/05/01 03:34:31;;;;;;;18.53;16.47;;;9.80;99.90;;;;;;5072376;28;20221;-76
2021/05/01 03:36:59;;;;;;;17.13;15.43;;;9.80;99.90;;;;;;5071395;28;20233;-78
2021/05/01 03:39:26;;;;;;;21.73;17.27;;;9.90;99.90;;;;;;5071437;28;20210;-77
2021/05/01 03:41:53;;;;;;;18.17;16.37;;;10.10;99.90;;;;;;5071250;28;20229;-76
2021/05/01 03:44:20;;;;;;;16.80;15.10;;;10.00;99.90;;;;;;5071468;28;20203;-75
2021/05/01 03:46:47;;;;;;;17.97;16.07;;;10.00;99.90;;;;;;5071012;28;20723;-73
2021/05/01 03:49:13;;;;;;;16.93;15.33;;;10.00;99.90;;;;;;5071244;28;20214;-75
2021/05/01 03:51:40;;;;;;;17.43;15.67;;;9.90;99.90;;;;;;5071540;28;20206;-74
2021/05/01 03:54:07;;;;;;;18.23;16.33;;;9.90;99.90;;;;;;5071760;28;20206;-76
2021/05/01 03:56:34;;;;;;;17.83;16.03;;;10.00;99.90;;;;;;5071409;28;20233;-76
2021/05/01 03:59:01;;;;;;;18.13;15.43;;;10.00;99.90;;;;;;5071082;28;20210;-74
2021/05/01 04:01:27;;;;;;;20.10;17.83;;;10.00;99.90;;;;;;5071566;28;20206;-73
2021/05/01 04:03:54;;;;;;;19.77;17.67;;;10.00;99.90;;;;;;5071282;28;20213;-73
2021/05/01 04:06:21;;;;;;;19.03;15.87;;;9.90;99.90;;;;;;5070917;28;20213;-73
2021/05/01 04:08:47;;;;;;;18.40;16.60;;;10.00;99.90;;;;;;5071239;28;20237;-73
2021/05/01 04:11:14;;;;;;;18.73;16.73;;;9.90;99.90;;;;;;5070754;28;20209;-72
2021/05/01 04:13:46;;;;;;;21.23;15.97;;;9.80;99.90;;;;;;5071206;28;20673;-72
2021/05/01 04:16:13;;;;;;;22.73;17.00;;;9.80;99.90;;;;;;5070797;28;20223;-71
2021/05/01 04:18:40;;;;;;;23.03;16.53;;;9.80;99.90;;;;;;5070766;28;20241;-72
2021/05/01 04:21:07;;;;;;;20.53;17.60;;;9.70;99.90;;;;;;5071452;28;20198;-72
2021/05/01 04:23:34;;;;;;;20.37;17.97;;;9.70;99.90;;;;;;5071254;28;20217;-73
2021/05/01 04:26:01;;;;;;;19.07;17.20;;;9.80;99.90;;;;;;5070566;28;20221;-72
2021/05/01 04:28:27;;;;;;;19.73;17.43;;;9.60;99.90;;;;;;5070694;28;20217;-73
2021/05/01 04:30:55;;;;;;;19.97;17.17;;;9.70;99.90;;;;;;5070282;28;20199;-72
2021/05/01 04:33:22;;;;;;;20.20;17.67;;;9.70;99.90;;;;;;5070722;28;20210;-72
2021/05/01 04:35:49;;;;;;;19.03;16.83;;;9.60;99.90;;;;;;5070341;28;20229;-72
2021/05/01 04:38:16;;;;;;;22.73;16.43;;;9.70;99.90;;;;;;5070705;28;20216;-72
2021/05/01 04:40:42;;;;;;;17.43;15.63;;;9.80;99.90;;;;;;5070139;28;20217;-72
2021/05/01 04:43:11;;;;;;;19.67;17.67;;;9.90;99.90;;;;;;5070867;28;20205;-73
2021/05/01 04:45:38;;;;;;;17.93;16.10;;;9.70;99.90;;;;;;5070741;28;20300;-73
2021/05/01 04:48:07;;;;;;;19.10;17.10;;;9.70;99.90;;;;;;5071089;28;20211;-74
2021/05/01 04:50:33;;;;;;;19.00;17.00;;;9.80;99.90;;;;;;5070748;28;20233;-74
2021/05/01 04:53:00;;;;;;;19.13;16.23;;;9.80;99.90;;;;;;5070131;28;20206;-73
2021/05/01 04:55:27;;;;;;;23.17;17.57;;;9.70;99.90;;;;;;5070523;28;20233;-74
2021/05/01 04:57:55;;;;;;;22.53;18.20;;;9.60;99.90;;;;;;5069782;28;20205;-74
2021/05/01 05:00:22;;;;;;;18.57;16.67;;;9.60;99.90;;;;;;5070003;28;20268;-72
2021/05/01 05:02:50;;;;;;;17.63;15.83;;;9.60;99.90;;;;;;5068981;28;20255;-74
2021/05/01 05:05:19;;;;;;;17.93;16.03;;;9.60;99.90;;;;;;5070326;28;20214;-73
2021/05/01 05:07:46;;;;;;;18.80;16.67;;;9.70;99.90;;;;;;5069781;28;20217;-72
2021/05/01 05:10:15;;;;;;;18.03;16.13;;;9.60;99.90;;;;;;5070320;28;20213;-73
2021/05/01 05:12:42;;;;;;;18.10;16.17;;;9.50;99.90;;;;;;5070461;28;20289;-75
2021/05/01 05:15:10;;;;;;;17.50;14.90;;;9.40;99.90;;;;;;5070268;28;20202;-71
2021/05/01 05:17:37;;;;;;;17.83;15.93;;;9.40;99.90;;;;;;5070731;28;20483;-71
2021/05/01 05:20:05;;;;;;;16.47;14.63;;;9.40;99.90;;;;;;5070020;28;20232;-75
2021/05/01 05:22:32;;;;;;;18.43;16.57;;;9.30;99.90;;;;;;5069789;28;20222;-74
2021/05/01 05:24:59;;;;;;;20.47;15.87;;;9.20;99.90;;;;;;5068711;28;20202;-73
2021/05/01 05:27:26;;;;;;;20.03;16.00;;;9.30;99.90;;;;;;5070617;28;20596;-74
2021/05/01 05:29:52;;;;;;;19.77;16.63;;;9.20;99.90;;;;;;5069559;28;20627;-76
2021/05/01 05:32:20;;;;;;;17.83;15.97;;;9.30;99.90;;;;;;5070318;28;20285;-74
2021/05/01 05:34:47;;;;;;;19.17;16.57;;;9.30;99.90;;;;;;5069978;28;20202;-71
2021/05/01 05:37:13;;;;;;;16.87;15.20;;;9.30;99.90;;;;;;5069760;28;20240;-71
2021/05/01 05:39:42;;;;;;;16.60;14.43;;;9.20;99.90;;;;;;5070083;28;20251;-70
2021/05/01 05:42:10;;;;;;;17.90;16.00;;;9.20;99.90;;;;;;5070315;28;20217;-70
2021/05/01 05:44:38;;;;;;;16.67;14.27;;;9.10;99.90;;;;;;5070059;28;20210;-74
2021/05/01 05:47:04;;;;;;;19.57;15.10;;;9.20;99.90;;;;;;5070228;28;20289;-73
2021/05/01 05:49:30;;;;;;;18.50;15.17;;;9.30;99.90;;;;;;5070028;28;20268;-74
2021/05/01 05:51:57;;;;;;;17.63;15.93;;;9.40;99.90;;;;;;5069774;28;20213;-73
2021/05/01 05:54:24;;;;;;;17.50;15.80;;;9.50;99.90;;;;;;5070162;28;20229;-73
2021/05/01 05:56:52;;;;;;;19.00;15.57;;;9.40;99.90;;;;;;5069728;28;20237;-73
2021/05/01 05:59:18;;;;;;;21.40;17.23;;;9.30;99.90;;;;;;5070082;28;20674;-73
2021/05/01 06:01:47;;;;;;;17.57;15.50;;;9.30;99.90;;;;;;5069676;28;20727;-72
2021/05/01 06:04:17;;;;;;;16.30;14.47;;;9.40;99.90;;;;;;5069992;28;20206;-74
2021/05/01 06:06:52;;;;;;;17.70;15.90;;;9.40;99.90;;;;;;5069957;28;20198;-72
2021/05/01 06:09:19;;;;;;;18.83;16.40;;;9.50;99.90;;;;;;5070140;28;20202;-73
2021/05/01 06:11:47;;;;;;;16.87;15.17;;;9.50;99.90;;;;;;5072187;28;20659;-73
2021/05/01 06:14:17;;;;;;;17.20;15.50;;;9.40;99.90;;;;;;5073761;28;20213;-72
2021/05/01 06:16:45;;;;;;;18.13;16.23;;;9.50;99.90;;;;;;5073408;28;20233;-72
2021/05/01 06:19:11;;;;;;;18.60;16.67;;;9.40;99.90;;;;;;5073758;28;20206;-72
2021/05/01 06:21:38;;;;;;;16.30;14.70;;;9.60;99.90;;;;;;5073604;28;20206;-72
2021/05/01 06:24:07;;;;;;;16.13;14.27;;;9.70;99.90;;;;;;5073404;28;20802;-73
2021/05/01 06:26:37;;;;;;;18.30;15.93;;;9.60;99.90;;;;;;5073564;28;20202;-73
2021/05/01 06:29:05;;;;;;;17.10;15.30;;;9.40;99.90;;;;;;5072949;28;20225;-73
2021/05/01 06:31:36;;;;;;;16.87;15.27;;;9.50;99.90;;;;;;5073577;28;20214;-72
2021/05/01 06:34:05;;;;;;;16.80;15.13;;;9.60;99.90;;;;;;5058875;28;20289;-73
2021/05/01 06:36:32;;;;;;;16.17;14.47;;;9.60;99.90;;;;;;5073437;28;20234;-72
2021/05/01 06:39:02;;;;;;;17.67;15.20;;;9.40;99.90;;;;;;5072976;28;20202;-72
2021/05/01 06:41:42;;;;;;;18.17;16.27;;;9.40;99.90;;;;;;5073246;28;20210;-72
2021/05/01 06:44:15;;;;;;;18.50;15.47;;;9.60;99.90;;;;;;5072368;28;20202;-74
2021/05/01 06:46:46;;;;;;;17.87;16.00;;;9.50;99.90;;;;;;5073124;28;20206;-73
2021/05/01 06:49:22;;;;;;;19.87;16.23;;;9.60;99.90;;;;;;5072833;28;20214;-73
2021/05/01 06:51:51;;;;;;;17.50;15.80;;;9.60;99.90;;;;;;5072892;28;20584;-73
2021/05/01 06:54:18;;;;;;;20.73;18.53;;;9.60;99.90;;;;;;5072783;28;20233;-73
2021/05/01 06:56:44;;;;;;;21.13;17.60;;;9.50;99.90;;;;;;5067345;28;20304;-73
2021/05/01 06:59:14;;;;;;;16.67;15.10;;;9.50;99.90;;;;;;5066829;28;20198;-72
2021/05/01 07:01:45;;;;;;;17.97;16.33;;;9.40;99.90;;;;;;5063423;28;20225;-75
2021/05/01 07:04:13;;;;;;;16.50;14.77;;;9.40;99.90;;;;;;5065077;28;20203;-72
2021/05/01 07:06:40;;;;;;;18.37;16.10;;;9.50;99.90;;;;;;5072460;28;20743;-73
2021/05/01 07:09:06;;;;;;;17.53;15.70;;;9.50;99.90;;;;;;5072347;28;20202;-72
2021/05/01 07:11:34;;;;;;;18.07;16.20;;;9.60;99.90;;;;;;5072129;28;20745;-72
2021/05/01 07:14:02;;;;;;;19.53;17.43;;;9.50;99.90;;;;;;5072353;28;20202;-74
2021/05/01 07:16:29;;;;;;;17.40;15.80;;;9.50;99.90;;;;;;5072419;28;20234;-72
2021/05/01 07:18:56;;;;;;;20.33;18.10;;;9.50;99.90;;;;;;5072323;28;20252;-73
2021/05/01 07:21:23;;;;;;;20.50;17.57;;;9.60;99.90;;;;;;5072054;28;20213;-72
2021/05/01 07:23:50;;;;;;;19.67;17.67;;;9.50;99.90;;;;;;5071258;28;20206;-73
2021/05/01 07:26:21;;;;;;;16.77;14.97;;;9.60;99.90;;;;;;5064415;28;20211;-74
2021/05/01 07:28:51;;;;;;;18.17;16.40;;;9.70;99.90;;;;;;5070458;28;20201;-72
2021/05/01 07:31:22;;;;;;;16.97;15.17;;;9.60;99.90;;;;;;5067606;28;20281;-72
2021/05/01 07:33:53;;;;;;;17.03;15.33;;;9.60;99.90;;;;;;5071754;28;20202;-74
2021/05/01 07:36:27;;;;;;;16.17;14.57;;;9.60;99.90;;;;;;5071787;28;20226;-74
2021/05/01 07:38:57;;;;;;;17.20;15.57;;;9.70;99.90;;;;;;5071939;28;20202;-75
2021/05/01 07:41:25;;;;;;;22.30;15.57;;;9.70;99.90;;;;;;5072017;28;20211;-73
2021/05/01 07:43:52;;;;;;;20.50;16.13;;;9.60;99.90;;;;;;5069284;28;20209;-74
2021/05/01 07:46:22;;;;;;;17.43;15.70;;;9.70;99.90;;;;;;5071633;28;20275;-74
2021/05/01 07:48:48;;;;;;;17.27;15.53;;;9.70;99.90;;;;;;5070931;28;20221;-74
2021/05/01 07:51:16;;;;;;;16.37;14.67;;;9.70;99.90;;;;;;5071777;28;20202;-72
2021/05/01 07:53:44;;;;;;;18.67;15.90;;;9.70;99.90;;;;;;5072225;28;20202;-74
2021/05/01 07:56:10;;;;;;;16.27;14.67;;;9.70;99.90;;;;;;5067902;28;20236;-75
2021/05/01 07:58:37;;;;;;;20.63;14.90;;;9.70;99.90;;;;;;5070617;28;20689;-75
2021/05/01 08:01:04;;;;;;;18.90;15.50;;;9.80;99.90;;;;;;5066565;28;20217;-75
2021/05/01 08:03:31;;;;;;;15.70;14.13;;;9.70;99.90;;;;;;5071291;28;20233;-73
2021/05/01 08:05:57;;;;;;;17.70;15.23;;;9.70;99.90;;;;;;5065222;28;20214;-74
2021/05/01 08:08:24;;;;;;;17.17;14.57;;;10.00;99.90;;;;;;5070219;28;20205;-75
2021/05/01 08:10:51;;;;;;;15.70;14.30;;;10.10;99.90;;;;;;5069995;28;20248;-71
2021/05/01 08:13:18;;;;;;;17.07;15.13;;;10.10;99.90;;;;;;5071237;28;20221;-70
2021/05/01 08:15:44;;;;;;;16.37;14.73;;;10.10;99.90;;;;;;5063884;28;20202;-71
2021/05/01 08:18:11;;;;;;;16.27;14.70;;;10.00;99.90;;;;;;5070762;28;20662;-75
2021/05/01 08:20:37;;;;;;;16.80;15.10;;;10.00;99.90;;;;;;5062629;28;20669;-76
2021/05/01 08:23:04;;;;;;;16.00;14.37;;;10.20;99.90;;;;;;5063492;28;20691;-71
2021/05/01 08:25:30;;;;;;;17.03;14.97;;;10.30;99.90;;;;;;5070891;28;20210;-74
2021/05/01 08:27:58;;;;;;;15.70;14.27;;;10.30;99.90;;;;;;5070114;28;20259;-72
2021/05/01 08:30:24;;;;;;;17.23;13.57;;;10.30;99.90;;;;;;5070986;28;20198;-74
2021/05/01 08:32:51;;;;;;;15.97;14.27;;;10.10;99.90;;;;;;5065808;28;20229;-72
2021/05/01 08:35:18;;;;;;;19.13;16.07;;;10.10;99.90;;;;;;5068994;28;20202;-72
2021/05/01 08:37:46;;;;;;;16.90;14.53;;;10.30;99.90;;;;;;5073376;28;20241;-72
2021/05/01 08:40:14;;;;;;;15.43;13.83;;;10.20;99.90;;;;;;5065976;28;20217;-71
2021/05/01 08:42:43;;;;;;;14.93;13.40;;;10.30;99.90;;;;;;5069655;28;20669;-72
2021/05/01 08:45:13;;;;;;;18.00;15.43;;;10.40;99.90;;;;;;5067895;28;20689;-73
2021/05/01 08:47:44;;;;;;;13.77;12.20;;;10.40;99.90;;;;;;5070674;28;20213;-76
2021/05/01 08:50:32;;;;;;;15.93;13.33;;;10.50;99.90;;;;;;5070767;28;20203;-75
2021/05/01 08:53:01;;;;;;;13.23;11.93;;;10.80;99.90;;;;;;5069044;28;20198;-72
2021/05/01 08:55:30;;;;;;;16.27;14.03;;;10.80;99.90;;;;;;5067895;28;20300;-72
2021/05/01 08:57:56;;;;;;;15.47;13.97;;;10.80;99.90;;;;;;5067837;28;20213;-70
2021/05/01 09:00:24;;;;;;;16.87;15.17;;;11.00;99.90;;;;;;5056565;28;20582;-71
2021/05/01 09:02:50;;;;;;;14.30;12.90;;;10.90;99.90;;;;;;5062772;28;20747;-70
2021/05/01 09:05:18;;;;;;;14.13;12.70;;;10.90;99.90;;;;;;5070535;28;20326;-71
2021/05/01 09:07:47;;;;;;;12.53;11.23;;;10.90;99.90;;;;;;5066980;28;20210;-70
2021/05/01 09:10:14;;;;;;;13.63;12.33;;;10.80;99.90;;;;;;5064446;28;20202;-71
2021/05/01 09:12:43;;;;;;;14.60;13.10;;;10.60;99.90;;;;;;5066842;28;20235;-71
2021/05/01 09:15:11;;;;;;;13.80;12.50;;;10.70;99.90;;;;;;5059411;28;20296;-71
2021/05/01 09:17:40;;;;;;;14.87;13.37;;;10.70;99.90;;;;;;5068573;28;20264;-72
2021/05/01 09:20:09;;;;;;;16.50;12.80;;;10.80;99.90;;;;;;5067126;28;20209;-71
2021/05/01 09:22:51;;;;;;;14.33;12.77;;;10.80;99.90;;;;;;5061398;28;20203;-70
2021/05/01 09:25:18;;;;;;;13.77;12.37;;;10.70;99.90;;;;;;5067851;28;20252;-71
2021/05/01 09:28:06;;;;;;;18.00;14.03;;;10.70;99.90;;;;;;5070172;28;20316;-70
2021/05/01 09:30:34;;;;;;;15.00;12.60;;;10.80;99.90;;;;;;5070051;28;20202;-69
2021/05/01 09:33:24;;;;;;;16.60;14.73;;;10.90;99.90;;;;;;5069528;28;20213;-68
2021/05/01 09:35:56;;;;;;;14.90;13.27;;;10.90;99.90;;;;;;5062227;28;20215;-70
2021/05/01 09:38:23;;;;;;;17.37;13.57;;;10.60;99.90;;;;;;5069873;28;20292;-69
2021/05/01 09:40:50;;;;;;;13.67;12.27;;;10.60;99.90;;;;;;5069606;28;20570;-69
2021/05/01 09:43:18;;;;;;;14.77;12.73;;;10.60;99.90;;;;;;5070049;28;20205;-69
2021/05/01 09:45:44;;;;;;;14.43;13.00;;;10.60;99.90;;;;;;5071195;28;20685;-69
2021/05/01 09:48:13;;;;;;;18.33;14.53;;;10.50;99.90;;;;;;5074427;28;20271;-69
2021/05/01 09:50:41;;;;;;;14.70;13.30;;;10.60;99.90;;;;;;5074306;28;20214;-68
2021/05/01 09:53:11;;;;;;;13.93;12.37;;;10.80;99.90;;;;;;5069456;28;20673;-70
2021/05/01 09:55:48;;;;;;;15.27;13.67;;;10.70;99.90;;;;;;5065622;28;20214;-71
2021/05/01 09:58:16;;;;;;;15.97;13.03;;;10.70;99.90;;;;;;5063031;28;20220;-70
2021/05/01 10:00:44;;;;;;;14.10;12.70;;;10.90;99.90;;;;;;5067018;28;20213;-71
2021/05/01 10:03:24;;;;;;;14.10;12.20;;;11.20;99.90;;;;;;5070146;28;20538;-72
2021/05/01 10:05:54;;;;;;;15.67;14.07;;;11.30;99.90;;;;;;5062803;28;20260;-68
2021/05/01 10:08:22;;;;;;;14.50;13.00;;;11.60;99.90;;;;;;5063430;28;20203;-68
2021/05/01 10:10:50;;;;;;;12.63;11.27;;;11.70;99.90;;;;;;5062051;28;20577;-69
2021/05/01 10:13:18;;;;;;;12.30;11.00;;;11.60;99.90;;;;;;5062271;28;20665;-72
2021/05/01 10:15:45;;;;;;;13.17;11.87;;;11.50;99.90;;;;;;5071225;28;20201;-71
2021/05/01 10:18:13;;;;;;;14.13;12.63;;;11.40;99.90;;;;;;5061062;28;20210;-72
2021/05/01 10:20:42;;;;;;;12.83;11.53;;;11.50;99.90;;;;;;5069583;28;20240;-71
2021/05/01 10:23:10;;;;;;;13.77;11.37;;;11.40;99.90;;;;;;5068325;28;20198;-74
2021/05/01 10:25:37;;;;;;;14.70;13.17;;;11.50;99.90;;;;;;5073451;28;20697;-74
2021/05/01 10:28:06;;;;;;;16.20;11.20;;;11.40;99.90;;;;;;5072908;28;20696;-75
2021/05/01 10:30:34;;;;;;;19.37;13.73;;;11.50;99.90;;;;;;5073143;28;20589;-74
2021/05/01 10:33:12;;;;;;;18.73;13.27;;;11.60;99.90;;;;;;5072825;28;20202;-72
2021/05/01 10:35:40;;;;;;;11.60;10.53;;;11.60;99.90;;;;;;5073352;28;20198;-73
2021/05/01 10:38:11;;;;;;;11.63;10.40;;;11.60;99.90;;;;;;5073329;28;20279;-75
2021/05/01 10:40:43;;;;;;;14.33;11.83;;;11.40;99.90;;;;;;5067619;28;20739;-74
2021/05/01 10:43:12;;;;;;;12.53;11.33;;;11.40;99.90;;;;;;5073419;28;20579;-74
2021/05/01 10:45:39;;;;;;;13.93;10.67;;;11.40;99.90;;;;;;5073328;28;20214;-74
2021/05/01 10:48:07;;;;;;;13.07;10.20;;;11.30;99.90;;;;;;5072863;28;20230;-73
2021/05/01 10:50:34;;;;;;;11.30;10.13;;;11.30;99.90;;;;;;5071535;28;20343;-73
2021/05/01 10:53:03;;;;;;;11.13;9.97;;;11.30;99.90;;;;;;5072650;28;20198;-73
2021/05/01 10:55:44;;;;;;;11.37;9.90;;;11.20;99.90;;;;;;5072884;28;20206;-71
2021/05/01 10:58:11;;;;;;;13.73;11.00;;;11.30;99.90;;;;;;5072783;28;20206;-73
2021/05/01 11:00:43;;;;;;;12.10;11.00;;;11.50;99.90;;;;;;5071430;28;20220;-74
2021/05/01 11:03:09;;;;;;;12.10;10.90;;;12.00;99.90;;;;;;5072961;28;20256;-73
2021/05/01 11:05:41;;;;;;;12.53;11.20;;;12.10;99.90;;;;;;5072186;28;20213;-74
2021/05/01 11:08:22;;;;;;;12.90;11.53;;;12.20;99.90;;;;;;5072445;28;20264;-75
2021/05/01 11:10:53;;;;;;;11.43;10.33;;;12.10;99.90;;;;;;5065093;28;20213;-70
2021/05/01 11:13:25;;;;;;;13.13;11.83;;;12.20;99.90;;;;;;5068775;28;20623;-71
2021/05/01 11:15:56;;;;;;;11.90;10.83;;;12.30;99.90;;;;;;5071581;28;20584;-73
2021/05/01 11:18:25;;;;;;;10.63;9.63;;;12.70;99.90;;;;;;5064173;28;20209;-70
2021/05/01 11:20:53;;;;;;;11.23;9.30;;;13.00;99.90;;;;;;5071813;28;20252;-71
2021/05/01 11:23:21;;;;;;;11.60;10.40;;;13.10;99.90;;;;;;5071785;28;20668;-72
2021/05/01 11:25:50;;;;;;;11.20;9.67;;;13.30;99.90;;;;;;5071593;28;20281;-71
2021/05/01 11:28:19;;;;;;;10.43;9.30;;;13.20;99.90;;;;;;5071817;28;20209;-71
2021/05/01 11:30:45;;;;;;;9.73;8.93;;;12.90;99.90;;;;;;5071301;28;20209;-70
2021/05/01 11:33:14;;;;;;;11.35;10.30;;;13.10;99.90;;;;;;5071733;28;20256;-71
2021/05/01 11:35:41;;;;;;;9.37;8.47;;;12.90;99.90;;;;;;5071894;28;20558;-71
2021/05/01 11:38:16;;;;;;;12.00;10.60;;;13.00;99.90;;;;;;5071956;28;20230;-71
2021/05/01 11:40:47;;;;;;;15.23;10.13;;;13.10;99.90;;;;;;5061013;28;20212;-71
2021/05/01 11:43:16;;;;;;;11.52;10.23;;;13.30;99.90;;;;;;5060046;28;20735;-71
2021/05/01 11:45:47;;;;;;;12.80;9.70;;;13.00;99.90;;;;;;5072221;28;20283;-78
2021/05/01 11:48:18;;;;;;;10.25;9.35;;;12.90;99.90;;;;;;5071269;28;20210;-71
2021/05/01 11:50:48;;;;;;;11.90;8.90;;;13.10;99.90;;;;;;5067991;28;20219;-71
2021/05/01 11:53:30;;;;;;;10.20;9.05;;;13.40;99.90;;;;;;5070287;28;20210;-70
2021/05/01 11:55:59;;;;;;;9.60;8.27;;;13.80;99.90;;;;;;5071157;28;20218;-71
2021/05/01 11:58:34;;;;;;;11.00;8.07;;;13.90;99.90;;;;;;5071526;28;20682;-72
2021/05/01 12:01:14;;;;;;;9.43;7.95;;;14.10;99.90;;;;;;5071347;28;20214;-72
2021/05/01 12:03:42;;;;;;;10.18;7.95;;;14.30;99.90;;;;;;5072024;28;20210;-72
2021/05/01 12:06:18;;;;;;;12.32;8.43;;;14.20;99.90;;;;;;5068931;28;20216;-73
2021/05/01 12:08:45;;;;;;;9.60;8.57;;;14.40;99.90;;;;;;5065765;28;20206;-73
2021/05/01 12:11:12;;;;;;;8.77;7.95;;;14.30;99.90;;;;;;5071224;28;20209;-72
2021/05/01 12:13:42;;;;;;;8.75;7.85;;;14.30;99.90;;;;;;5064501;28;20290;-73
2021/05/01 12:16:18;;;;;;;9.05;7.80;;;14.50;99.90;;;;;;5064338;28;20266;-73
2021/05/01 12:18:47;;;;;;;10.88;8.32;;;14.70;99.90;;;;;;5066503;28;20202;-72
2021/05/01 12:21:15;;;;;;;8.57;7.72;;;14.50;99.90;;;;;;5066815;28;20720;-72
2021/05/01 12:23:43;;;;;;;10.70;6.95;;;14.80;99.90;;;;;;5069924;28;20201;-71
2021/05/01 12:26:37;;;;;;;9.45;8.23;;;15.00;99.90;;;;;;5063653;28;20747;-72
2021/05/01 12:29:27;;;;;;;7.82;7.05;;;15.10;99.90;;;;;;5061382;28;20220;-71
2021/05/01 12:31:54;;;;;;;11.75;8.23;;;15.30;99.90;;;;;;5057289;28;20207;-70
2021/05/01 12:34:22;;;;;;;10.38;7.32;;;15.60;99.90;;;;;;5064881;28;20582;-71
2021/05/01 12:36:51;;;;;;;8.48;7.63;;;15.50;99.90;;;;;;5070165;28;20733;-72
2021/05/01 12:39:19;;;;;;;7.65;6.88;;;15.60;99.90;;;;;;5068074;28;20198;-71